map of AUN home
AUN - Airport
Location
City:  Auburn, California, United States
Name:Auburn Municipal Airport
ICAO:KAUN
IATA:AUN
FAA LID:AUN

Details
Type:Airport (Airfield)
Use:Public/Civil
Latitude:3857'17"N (38.954833)
Longitude:12104'54"W (-121.081721)
Datum:WGS 1984
Elevation:1538 ft (469 m)
Variation:13.43E (WMM2015 magnetic declination)
-0.10 annual change
Runways:1
Longest:3700 × 75 ft (1128 × 23 m), paved

Time
Time Zone:UTC-8 (DST-7)
Local Time:

Weather
METAR:KAUN 181935Z AUTO 00000KT 9SM BKN050 OVC065 11/06 A3034 RMK A01

Related Locations
Nearby:
Farthest:FTU: 11249 mi / 18103 km
Tolagnaro [Maurillac Airport (Fort Dauphin Airport)], MG

Find:

   beyond  
but within

Other Information
Maps:
NOTAMs:
Links:
Sources:

  
  • flag of United States
  • flag of California
  

Sectional Chart

Flight Planning
at skyvector.com

Satellite Image

Google Maps Satellite view

 

Copyright © 2004-2019 Karl L. Swartz. All rights reserved.
The Great Circle Mapper name and logo are trademarks of the Great Circle Mapper.
All other trademarks mentioned herein belong to their respective owners.
Please see credits for attibutions and further copyright information.

  Follow gcmap on Facebook Follow gcmap on Twitter Follow gcmap on Google+ GCmap on LinkedIn

hCard Microformat

Geo Microformat